createdAt,value
2023-12-21T00:01:45.119Z,74.02
2023-12-21T00:04:13.923Z,73.68
2023-12-21T00:06:41.952Z,74.46
2023-12-21T00:09:11.106Z,73.78
2023-12-21T00:11:39.622Z,73.35
2023-12-21T00:14:07.561Z,73.38
2023-12-21T00:16:35.509Z,73.84
2023-12-21T00:19:04.067Z,73.82
2023-12-21T00:21:32.080Z,73.54
2023-12-21T00:23:59.927Z,73.03
2023-12-21T00:26:29.314Z,72.99
2023-12-21T00:28:57.171Z,72.94
2023-12-21T00:31:25.116Z,73.40
2023-12-21T00:33:53.343Z,73.29
2023-12-21T00:36:21.305Z,73.42
2023-12-21T00:38:49.197Z,73.94
2023-12-21T00:41:17.450Z,73.06
2023-12-21T00:43:46.651Z,72.87
2023-12-21T00:46:14.598Z,72.74
2023-12-21T00:48:42.855Z,72.92
2023-12-21T00:51:12.934Z,72.34
2023-12-21T00:53:40.780Z,72.87
2023-12-21T00:56:09.983Z,73.17
2023-12-21T00:58:37.931Z,73.27
2023-12-21T01:01:07.629Z,73.30
2023-12-21T01:03:36.439Z,73.07
2023-12-21T01:06:06.599Z,73.81
2023-12-21T01:08:35.401Z,73.33
2023-12-21T01:11:04.062Z,73.10
2023-12-21T01:13:33.535Z,73.21
2023-12-21T01:16:03.013Z,73.17
2023-12-21T01:18:43.874Z,72.96
2023-12-21T01:21:12.416Z,73.04
2023-12-21T01:23:48.693Z,73.48
2023-12-21T01:26:19.623Z,73.01
2023-12-21T01:28:57.408Z,73.08
2023-12-21T01:31:26.380Z,72.63
2023-12-21T01:33:57.641Z,72.73
2023-12-21T01:36:31.744Z,73.11
2023-12-21T01:39:00.106Z,72.60
2023-12-21T01:41:28.062Z,71.91
2023-12-21T01:44:04.556Z,72.39
2023-12-21T01:46:32.749Z,72.91
2023-12-21T01:49:03.455Z,72.42
2023-12-21T01:51:33.058Z,72.84
2023-12-21T01:54:04.324Z,73.32
2023-12-21T01:56:35.156Z,72.98
2023-12-21T01:59:03.244Z,73.61
2023-12-21T02:01:32.602Z,73.91
2023-12-21T02:04:00.924Z,73.29
2023-12-21T02:06:30.356Z,73.16
2023-12-21T02:08:58.938Z,72.99
2023-12-21T02:11:27.126Z,73.42
2023-12-21T02:13:56.421Z,73.39
2023-12-21T02:16:29.813Z,73.67
2023-12-21T02:18:58.858Z,73.61
2023-12-21T02:21:27.936Z,73.88
2023-12-21T02:23:59.570Z,74.06
2023-12-21T02:26:29.352Z,73.96
2023-12-21T02:28:57.210Z,73.69
2023-12-21T02:31:25.131Z,73.11
2023-12-21T02:33:53.261Z,73.50
2023-12-21T02:36:21.162Z,73.24
2023-12-21T02:38:49.124Z,73.83
2023-12-21T02:41:17.222Z,73.62
2023-12-21T02:43:46.380Z,73.34
2023-12-21T02:46:14.222Z,73.81
2023-12-21T02:48:42.344Z,73.55
2023-12-21T02:51:10.474Z,74.03
2023-12-21T02:53:38.335Z,73.54
2023-12-21T02:56:06.518Z,73.64
2023-12-21T02:58:34.607Z,73.89
2023-12-21T03:01:04.623Z,73.85
2023-12-21T03:03:32.926Z,73.79
2023-12-21T03:06:00.962Z,73.26
2023-12-21T03:08:28.951Z,73.77
2023-12-21T03:10:57.002Z,73.15
2023-12-21T03:13:24.932Z,73.80
2023-12-21T03:15:52.776Z,73.95
2023-12-21T03:18:22.227Z,73.87
2023-12-21T03:20:50.032Z,74.06
2023-12-21T03:23:17.887Z,73.76
2023-12-21T03:25:45.989Z,74.10
2023-12-21T03:28:15.586Z,74.53
2023-12-21T03:30:44.693Z,74.71
2023-12-21T03:33:13.028Z,73.86
2023-12-21T03:35:42.280Z,73.45
2023-12-21T03:38:10.159Z,73.54
2023-12-21T03:40:38.285Z,73.65
2023-12-21T03:43:07.068Z,73.96
2023-12-21T03:45:40.967Z,74.05
2023-12-21T03:48:09.767Z,73.99
2023-12-21T03:50:38.445Z,73.76
2023-12-21T03:53:08.960Z,74.05
2023-12-21T03:55:38.133Z,73.34
2023-12-21T03:58:06.518Z,73.53
2023-12-21T04:00:34.697Z,73.67
2023-12-21T04:03:03.252Z,73.07
2023-12-21T04:05:31.173Z,73.22
2023-12-21T04:07:59.065Z,73.37
2023-12-21T04:10:28.847Z,73.31
2023-12-21T04:12:58.004Z,73.38
2023-12-21T04:15:25.906Z,72.93
2023-12-21T04:17:54.079Z,73.42
2023-12-21T04:20:22.209Z,73.40
2023-12-21T04:22:50.529Z,73.46
2023-12-21T04:25:19.565Z,73.67
2023-12-21T04:27:49.130Z,73.41
2023-12-21T04:30:18.175Z,72.66
2023-12-21T04:32:46.848Z,73.20
2023-12-21T04:35:16.157Z,73.36
2023-12-21T04:37:44.179Z,73.31
2023-12-21T04:40:14.314Z,73.34
2023-12-21T04:42:43.235Z,73.19
2023-12-21T04:45:12.660Z,72.90
2023-12-21T04:47:41.037Z,72.80
2023-12-21T04:50:09.653Z,72.74
2023-12-21T04:52:37.719Z,72.81
2023-12-21T04:55:06.917Z,73.13
2023-12-21T04:57:35.104Z,72.77
2023-12-21T05:00:07.000Z,72.73
2023-12-21T05:02:36.520Z,72.73
2023-12-21T05:05:05.110Z,72.61
2023-12-21T05:07:33.182Z,72.35
2023-12-21T05:10:02.223Z,72.80
2023-12-21T05:12:30.192Z,72.93
2023-12-21T05:15:00.359Z,73.19
2023-12-21T05:17:28.992Z,72.58
2023-12-21T05:19:58.341Z,72.49
2023-12-21T05:22:26.365Z,72.54
2023-12-21T05:24:54.869Z,73.02
2023-12-21T05:27:22.816Z,73.40
2023-12-21T05:29:50.657Z,72.91
2023-12-21T05:32:18.828Z,73.56
2023-12-21T05:34:47.180Z,73.39
2023-12-21T05:37:16.422Z,73.19
2023-12-21T05:39:49.332Z,73.30
2023-12-21T05:42:17.279Z,73.35
2023-12-21T05:44:48.216Z,73.63
2023-12-21T05:47:17.008Z,73.24
2023-12-21T05:49:45.178Z,73.71
2023-12-21T05:52:16.310Z,73.61
2023-12-21T05:54:44.243Z,73.58
2023-12-21T05:57:13.098Z,73.41
2023-12-21T05:59:41.685Z,73.15
2023-12-21T06:02:09.619Z,73.25
2023-12-21T06:04:38.205Z,73.42
2023-12-21T06:07:06.218Z,73.31
2023-12-21T06:09:42.569Z,73.26
2023-12-21T06:12:13.067Z,73.23
2023-12-21T06:14:40.977Z,72.83
2023-12-21T06:17:08.833Z,73.16
2023-12-21T06:19:37.089Z,73.34
2023-12-21T06:22:06.885Z,73.56
2023-12-21T06:24:36.097Z,73.62
2023-12-21T06:27:04.626Z,72.82
2023-12-21T06:29:32.426Z,73.04
2023-12-21T06:32:00.480Z,73.31
2023-12-21T06:34:28.854Z,73.20
2023-12-21T06:36:58.216Z,73.60
2023-12-21T06:39:26.139Z,73.45
2023-12-21T06:41:55.545Z,73.20
2023-12-21T06:44:23.360Z,73.86
2023-12-21T06:46:52.139Z,73.15
2023-12-21T06:49:20.987Z,73.09
2023-12-21T06:51:49.333Z,73.57
2023-12-21T06:54:17.697Z,73.69
2023-12-21T06:56:45.945Z,73.46
2023-12-21T06:59:15.201Z,73.66
2023-12-21T07:01:43.177Z,73.57
2023-12-21T07:04:12.831Z,73.83
2023-12-21T07:06:40.873Z,73.92
2023-12-21T07:09:10.408Z,74.41
2023-12-21T07:11:38.515Z,73.62
2023-12-21T07:14:06.626Z,73.58
2023-12-21T07:16:39.013Z,73.68
2023-12-21T07:19:07.635Z,74.11
2023-12-21T07:21:35.579Z,73.78
2023-12-21T07:24:03.526Z,74.21
2023-12-21T07:26:36.898Z,74.72
2023-12-21T07:29:06.948Z,74.00
2023-12-21T07:31:36.544Z,74.28
2023-12-21T07:34:04.854Z,74.22
2023-12-21T07:36:39.398Z,74.28
2023-12-21T07:39:07.751Z,74.45
2023-12-21T07:41:37.069Z,74.24
2023-12-21T07:44:05.804Z,74.08
2023-12-21T07:46:34.201Z,74.59
2023-12-21T07:49:04.836Z,74.98
2023-12-21T07:51:33.511Z,74.62
2023-12-21T07:54:01.349Z,74.39
2023-12-21T07:56:29.414Z,74.79
2023-12-21T07:58:57.560Z,74.33
2023-12-21T08:01:25.532Z,74.73
2023-12-21T08:03:57.743Z,75.22
2023-12-21T08:06:27.500Z,74.82
2023-12-21T08:08:58.169Z,75.15
2023-12-21T08:11:29.483Z,74.78
2023-12-21T08:13:59.076Z,75.04
2023-12-21T08:16:26.968Z,75.37
2023-12-21T08:18:57.062Z,75.33
2023-12-21T08:21:26.610Z,75.37
2023-12-21T08:23:54.435Z,74.68
2023-12-21T08:26:22.749Z,74.47
2023-12-21T08:28:51.025Z,74.01
2023-12-21T08:31:26.314Z,74.50
2023-12-21T08:33:55.201Z,74.13
2023-12-21T08:36:23.333Z,74.14
2023-12-21T08:38:53.360Z,74.17
2023-12-21T08:41:26.051Z,73.85
2023-12-21T08:43:56.079Z,73.82
2023-12-21T08:46:24.229Z,73.50
2023-12-21T08:48:52.097Z,73.37
2023-12-21T08:51:20.242Z,73.11
2023-12-21T08:53:48.353Z,72.69
2023-12-21T08:56:17.550Z,72.50
2023-12-21T08:58:45.654Z,72.38
2023-12-21T09:01:17.732Z,72.31
2023-12-21T09:03:45.983Z,72.15
2023-12-21T09:06:14.257Z,72.24
2023-12-21T09:08:42.338Z,72.20
2023-12-21T09:11:10.236Z,72.20
2023-12-21T09:13:39.760Z,71.81
2023-12-21T09:16:07.936Z,71.81
2023-12-21T09:18:35.862Z,71.75
2023-12-21T09:21:04.908Z,71.82
2023-12-21T09:23:32.774Z,71.75
2023-12-21T09:26:00.695Z,71.51
2023-12-21T09:28:28.929Z,71.54
2023-12-21T09:30:58.443Z,70.83
2023-12-21T09:33:26.408Z,70.75
2023-12-21T09:35:56.409Z,70.78
2023-12-21T09:38:24.280Z,70.54
2023-12-21T09:40:52.725Z,70.43
2023-12-21T09:43:23.360Z,70.18
2023-12-21T09:45:52.450Z,69.94
2023-12-21T09:48:23.291Z,69.88
2023-12-21T09:50:52.328Z,69.90
2023-12-21T09:53:24.816Z,69.85
2023-12-21T09:55:53.480Z,69.47
2023-12-21T09:58:21.747Z,69.23
2023-12-21T10:00:49.793Z,69.24
2023-12-21T10:03:19.098Z,69.63
2023-12-21T10:05:49.892Z,69.68
2023-12-21T10:08:19.313Z,70.59
2023-12-21T10:10:47.334Z,70.96
2023-12-21T10:13:15.254Z,71.24
2023-12-21T10:15:44.004Z,71.61
2023-12-21T10:18:12.229Z,72.01
2023-12-21T10:20:40.560Z,72.72
2023-12-21T10:23:10.915Z,72.33
2023-12-21T10:25:39.367Z,72.44
2023-12-21T10:28:09.346Z,72.28
2023-12-21T10:30:38.144Z,72.06
2023-12-21T10:33:09.557Z,72.42
2023-12-21T10:35:39.648Z,72.31
2023-12-21T10:38:08.949Z,73.15
2023-12-21T10:40:39.523Z,73.07
2023-12-21T10:43:09.083Z,73.04
2023-12-21T10:45:38.345Z,73.36
2023-12-21T10:48:09.215Z,73.47
2023-12-21T10:50:41.885Z,72.92
2023-12-21T10:53:11.323Z,73.71
2023-12-21T10:55:42.964Z,74.41
2023-12-21T10:58:13.545Z,74.20
2023-12-21T11:00:44.067Z,74.05
2023-12-21T11:03:17.950Z,73.95
2023-12-21T11:05:46.988Z,73.18
2023-12-21T11:08:16.632Z,72.68
2023-12-21T11:10:47.227Z,73.02
2023-12-21T11:13:15.565Z,72.75
2023-12-21T11:15:52.354Z,72.61
2023-12-21T11:18:24.486Z,72.98
2023-12-21T11:20:57.326Z,73.03
2023-12-21T11:23:30.479Z,73.10
2023-12-21T11:26:01.639Z,72.68
2023-12-21T11:28:33.601Z,72.71
2023-12-21T11:31:14.189Z,73.07
2023-12-21T11:33:43.749Z,73.11
2023-12-21T11:36:12.785Z,73.22
2023-12-21T11:38:51.176Z,73.06
2023-12-21T11:41:28.771Z,72.59
2023-12-21T11:43:58.444Z,72.32
2023-12-21T11:46:27.381Z,72.11
2023-12-21T11:48:56.674Z,72.19
2023-12-21T11:51:24.883Z,72.08
2023-12-21T11:54:09.728Z,71.63
2023-12-21T11:56:42.723Z,71.06
2023-12-21T11:59:12.780Z,70.91
2023-12-21T12:01:43.668Z,70.72
2023-12-21T12:04:15.252Z,71.12
2023-12-21T12:06:44.230Z,70.95
2023-12-21T12:09:13.625Z,71.09
2023-12-21T12:11:43.990Z,70.78
2023-12-21T12:14:12.386Z,71.28
2023-12-21T12:16:40.346Z,71.33
2023-12-21T12:19:12.403Z,71.40
2023-12-21T12:21:41.346Z,71.28
2023-12-21T12:24:13.593Z,71.00
2023-12-21T12:26:43.113Z,71.08
2023-12-21T12:29:16.677Z,70.99
2023-12-21T12:31:48.729Z,70.96
2023-12-21T12:34:18.479Z,70.83
2023-12-21T12:36:53.833Z,70.71
2023-12-21T12:39:22.693Z,70.95
2023-12-21T12:42:01.022Z,70.80
2023-12-21T12:44:32.629Z,70.98
2023-12-21T12:47:12.850Z,71.15
2023-12-21T12:49:43.507Z,70.73
2023-12-21T12:52:17.294Z,70.60
2023-12-21T12:54:51.338Z,70.63
2023-12-21T12:57:21.592Z,71.18
2023-12-21T12:59:49.443Z,71.39
2023-12-21T13:02:18.693Z,71.38
2023-12-21T13:04:49.760Z,72.16
2023-12-21T13:07:26.381Z,72.58
2023-12-21T13:10:08.786Z,72.73
2023-12-21T13:12:43.501Z,73.56
2023-12-21T13:15:13.531Z,72.43
2023-12-21T13:20:25.765Z,72.80
2023-12-21T13:22:54.092Z,72.46
2023-12-21T13:25:26.175Z,72.71
2023-12-21T13:28:07.474Z,72.43
2023-12-21T13:30:47.598Z,72.76
2023-12-21T13:33:15.935Z,73.16
2023-12-21T13:35:45.067Z,72.72
2023-12-21T13:38:13.202Z,72.39
2023-12-21T13:40:41.540Z,72.44
2023-12-21T13:43:17.157Z,72.15
2023-12-21T13:45:46.053Z,72.59
2023-12-21T13:48:23.399Z,73.19
2023-12-21T13:50:54.748Z,72.78
2023-12-21T13:53:25.096Z,72.06
2023-12-21T13:55:53.953Z,72.99
2023-12-21T13:58:23.513Z,72.39
2023-12-21T14:00:53.162Z,73.83
2023-12-21T14:03:23.583Z,74.26
2023-12-21T14:05:51.768Z,73.91
2023-12-21T14:08:19.751Z,73.74
2023-12-21T14:10:51.224Z,74.03
2023-12-21T14:13:21.714Z,74.52
2023-12-21T14:15:51.868Z,73.82
2023-12-21T14:18:19.720Z,75.23
2023-12-21T14:20:52.605Z,74.93
2023-12-21T14:23:22.399Z,74.67
2023-12-21T14:25:50.622Z,74.20
2023-12-21T14:28:19.030Z,74.10
2023-12-21T14:30:47.941Z,74.38
2023-12-21T14:33:17.233Z,73.53
2023-12-21T14:35:49.060Z,73.08
2023-12-21T14:38:19.634Z,73.34
2023-12-21T14:40:47.642Z,73.35
2023-12-21T14:43:15.788Z,73.64
2023-12-21T14:45:43.908Z,73.44
2023-12-21T14:48:14.433Z,73.06
2023-12-21T14:50:44.059Z,73.21
2023-12-21T14:53:12.235Z,73.04
2023-12-21T14:55:41.809Z,72.97
2023-12-21T14:58:10.086Z,72.23
2023-12-21T15:00:38.568Z,72.76
2023-12-21T15:03:06.506Z,72.38
2023-12-21T15:05:34.379Z,72.32
2023-12-21T15:08:06.265Z,72.84
2023-12-21T15:10:34.909Z,72.55
2023-12-21T15:13:03.684Z,72.15
2023-12-21T15:15:31.573Z,71.77
2023-12-21T15:17:59.533Z,71.53
2023-12-21T15:20:28.108Z,77.60
2023-12-21T15:22:56.029Z,76.34
2023-12-21T15:25:25.305Z,76.43
2023-12-21T15:27:53.474Z,79.80
2023-12-21T15:30:21.642Z,80.78
2023-12-21T15:32:49.970Z,81.94
2023-12-21T15:35:18.630Z,82.56
2023-12-21T15:37:47.439Z,83.10
2023-12-21T15:40:16.295Z,82.35
2023-12-21T15:42:46.274Z,81.66
2023-12-21T15:45:14.308Z,81.34
2023-12-21T15:47:45.510Z,80.87
2023-12-21T15:50:16.219Z,80.71
2023-12-21T15:52:47.980Z,80.95
2023-12-21T15:55:17.564Z,81.06
2023-12-21T15:57:46.891Z,81.14
2023-12-21T16:00:16.964Z,81.71
2023-12-21T16:02:45.412Z,81.66
2023-12-21T16:05:13.708Z,81.49
2023-12-21T16:07:41.825Z,81.42
2023-12-21T16:10:10.484Z,80.89
2023-12-21T16:12:38.509Z,81.12
2023-12-21T16:15:08.935Z,80.97
2023-12-21T16:17:37.395Z,81.55
2023-12-21T16:20:06.553Z,81.97
2023-12-21T16:22:34.452Z,81.85
2023-12-21T16:25:03.377Z,82.31
2023-12-21T16:27:31.227Z,82.19
2023-12-21T16:29:59.115Z,81.94
2023-12-21T16:32:28.707Z,82.67
2023-12-21T16:34:56.636Z,100.00
2023-12-21T16:37:24.774Z,100.00
2023-12-21T16:39:58.536Z,100.00
2023-12-21T16:42:26.905Z,100.00
2023-12-21T16:44:56.249Z,100.00
2023-12-21T16:47:24.288Z,100.00
2023-12-21T16:49:53.498Z,100.00
2023-12-21T16:52:21.730Z,100.00
2023-12-21T16:54:49.837Z,100.00
2023-12-21T16:57:19.584Z,100.00
2023-12-21T16:59:47.627Z,100.00
2023-12-21T17:02:15.617Z,98.85
2023-12-21T17:04:43.689Z,96.43
2023-12-21T17:07:13.209Z,94.62
2023-12-21T17:09:41.066Z,93.66
2023-12-21T17:12:09.442Z,92.61
2023-12-21T17:14:37.626Z,91.65
2023-12-21T17:17:05.881Z,91.47
2023-12-21T17:19:33.963Z,91.05
2023-12-21T17:22:02.764Z,90.82
2023-12-21T17:24:32.077Z,90.11
2023-12-21T17:26:59.918Z,89.79
2023-12-21T17:29:27.997Z,89.47
2023-12-21T17:31:55.987Z,89.93
2023-12-21T17:34:24.065Z,89.28
2023-12-21T17:36:52.291Z,89.16
2023-12-21T17:39:20.141Z,88.92
2023-12-21T17:41:50.678Z,88.58
2023-12-21T17:44:19.137Z,88.45
2023-12-21T17:46:47.160Z,88.97
2023-12-21T17:49:15.256Z,87.91
2023-12-21T17:51:43.491Z,87.86
2023-12-21T17:54:11.372Z,87.96
2023-12-21T17:56:39.728Z,87.26
2023-12-21T17:59:10.277Z,87.20
2023-12-21T18:01:38.280Z,87.61
2023-12-21T18:04:06.500Z,87.45
2023-12-21T18:06:34.468Z,87.20
2023-12-21T18:09:02.272Z,86.99
2023-12-21T18:11:32.770Z,87.00
2023-12-21T18:14:00.613Z,86.47
2023-12-21T18:16:29.923Z,86.14
2023-12-21T18:18:59.612Z,86.14
2023-12-21T18:21:27.800Z,85.79
2023-12-21T18:23:56.366Z,85.35
2023-12-21T18:26:24.510Z,84.90
2023-12-21T18:28:53.834Z,84.04
2023-12-21T18:31:21.810Z,82.98
2023-12-21T18:33:51.474Z,82.41
2023-12-21T18:36:20.155Z,81.85
2023-12-21T18:38:49.875Z,80.62
2023-12-21T18:41:18.038Z,79.24
2023-12-21T18:43:46.083Z,79.24
2023-12-21T18:46:14.030Z,78.35
2023-12-21T18:48:42.405Z,77.46
2023-12-21T18:51:12.079Z,77.21
2023-12-21T18:53:39.961Z,76.17
2023-12-21T18:56:10.741Z,75.64
2023-12-21T18:58:38.564Z,75.84
2023-12-21T19:01:06.831Z,75.34
2023-12-21T19:03:34.943Z,74.90
2023-12-21T19:06:02.970Z,74.96
2023-12-21T19:08:32.248Z,75.02
2023-12-21T19:11:00.420Z,75.45
2023-12-21T19:13:28.336Z,74.85
2023-12-21T19:15:57.565Z,74.91
2023-12-21T19:18:25.673Z,74.83
2023-12-21T19:20:53.664Z,74.74
2023-12-21T19:23:21.565Z,74.15
2023-12-21T19:25:51.054Z,73.85
2023-12-21T19:28:19.043Z,74.24
2023-12-21T19:30:46.947Z,74.24
2023-12-21T19:33:15.324Z,74.01
2023-12-21T19:35:43.293Z,73.81
2023-12-21T19:38:11.089Z,74.43
2023-12-21T19:40:39.387Z,73.54
2023-12-21T19:43:08.821Z,74.35
2023-12-21T19:45:36.764Z,73.14
2023-12-21T19:48:05.677Z,74.33
2023-12-21T19:50:35.653Z,73.56
2023-12-21T19:53:03.606Z,73.31
2023-12-21T19:55:31.715Z,73.42
2023-12-21T19:57:59.519Z,73.10
2023-12-21T20:00:28.690Z,72.99
2023-12-21T20:02:58.383Z,73.05
2023-12-21T20:05:26.622Z,72.44
2023-12-21T20:07:54.706Z,72.07
2023-12-21T20:10:23.257Z,71.71
2023-12-21T20:12:52.118Z,71.81
2023-12-21T20:15:20.343Z,71.89
2023-12-21T20:17:50.808Z,72.14
2023-12-21T20:20:19.000Z,72.17
2023-12-21T20:22:46.944Z,72.11
2023-12-21T20:25:15.931Z,72.84
2023-12-21T20:27:48.187Z,72.60
2023-12-21T20:30:18.381Z,73.11
2023-12-21T20:32:48.789Z,72.96
2023-12-21T20:35:18.715Z,73.40
2023-12-21T20:37:48.280Z,73.25
2023-12-21T20:40:18.041Z,73.73
2023-12-21T20:42:47.141Z,73.35
2023-12-21T20:45:15.487Z,74.77
2023-12-21T20:47:44.815Z,74.46
2023-12-21T20:50:18.035Z,75.15
2023-12-21T20:52:47.564Z,75.99
2023-12-21T20:55:16.477Z,76.21
2023-12-21T20:57:44.449Z,76.50
2023-12-21T21:00:13.234Z,76.29
2023-12-21T21:02:41.393Z,76.37
2023-12-21T21:05:09.490Z,76.69
2023-12-21T21:07:37.517Z,76.17
2023-12-21T21:10:07.896Z,75.65
2023-12-21T21:12:35.968Z,74.83
2023-12-21T21:15:04.191Z,74.59
2023-12-21T21:17:32.574Z,73.27
2023-12-21T21:20:01.221Z,72.62
2023-12-21T21:22:29.155Z,71.51
2023-12-21T21:24:57.353Z,70.46
2023-12-21T21:27:26.681Z,70.69
2023-12-21T21:29:54.565Z,71.02
2023-12-21T21:32:24.156Z,69.82
2023-12-21T21:34:52.179Z,69.73
2023-12-21T21:37:20.166Z,69.20
2023-12-21T21:39:48.404Z,69.48
2023-12-21T21:42:16.350Z,70.05
2023-12-21T21:44:45.580Z,69.40
2023-12-21T21:47:14.133Z,69.27
2023-12-21T21:49:42.093Z,68.58
2023-12-21T21:52:10.676Z,68.68
2023-12-21T21:54:38.851Z,68.49
2023-12-21T21:57:06.770Z,68.51
2023-12-21T21:59:34.732Z,68.50
2023-12-21T22:02:05.926Z,68.08
2023-12-21T22:04:34.401Z,68.02
2023-12-21T22:07:03.063Z,68.24
2023-12-21T22:09:32.591Z,68.61
2023-12-21T22:12:00.709Z,68.55
2023-12-21T22:14:28.626Z,68.63
2023-12-21T22:16:56.563Z,68.17
2023-12-21T22:19:26.044Z,69.06
2023-12-21T22:21:53.990Z,68.22
2023-12-21T22:24:21.800Z,68.04
2023-12-21T22:26:49.924Z,68.47
2023-12-21T22:29:18.813Z,67.91
2023-12-21T22:31:46.702Z,68.94
2023-12-21T22:34:14.938Z,67.34
2023-12-21T22:36:44.275Z,67.27
2023-12-21T22:39:12.130Z,67.11
2023-12-21T22:41:40.235Z,68.12
2023-12-21T22:44:08.129Z,66.88
2023-12-21T22:46:36.389Z,67.87
2023-12-21T22:49:04.630Z,67.24
2023-12-21T22:51:32.745Z,67.26
2023-12-21T22:54:02.993Z,68.22
2023-12-21T22:56:31.137Z,69.13
2023-12-21T22:58:59.002Z,68.94
2023-12-21T23:01:26.921Z,68.74
2023-12-21T23:03:55.539Z,69.02
2023-12-21T23:06:23.768Z,68.82
2023-12-21T23:08:51.629Z,69.08
2023-12-21T23:11:21.148Z,69.96
2023-12-21T23:13:49.034Z,69.90
2023-12-21T23:16:18.429Z,70.44
2023-12-21T23:18:46.722Z,70.07
2023-12-21T23:21:15.077Z,70.10
2023-12-21T23:23:42.969Z,69.68
2023-12-21T23:26:11.720Z,69.08
2023-12-21T23:28:40.922Z,70.18
2023-12-21T23:31:08.767Z,68.65
2023-12-21T23:33:36.926Z,68.14
2023-12-21T23:36:05.525Z,67.93
2023-12-21T23:38:33.601Z,68.21
2023-12-21T23:41:04.401Z,68.54
2023-12-21T23:43:32.464Z,70.20
2023-12-21T23:46:01.724Z,70.37
2023-12-21T23:48:29.931Z,70.60
2023-12-21T23:50:57.937Z,70.81
2023-12-21T23:53:25.797Z,71.23
2023-12-21T23:55:54.055Z,72.28
2023-12-21T23:58:21.933Z,71.06
